createdAt,value
2018-04-13T00:01:46.205Z,27.27
2018-04-13T00:04:13.654Z,29.15
2018-04-13T00:06:41.089Z,28.50
2018-04-13T00:09:08.580Z,28.73
2018-04-13T00:11:36.033Z,29.42
2018-04-13T00:14:03.477Z,29.77
2018-04-13T00:16:31.033Z,30.37
2018-04-13T00:18:58.468Z,29.17
2018-04-13T00:21:25.924Z,30.27
2018-04-13T00:23:53.369Z,28.95
2018-04-13T00:26:21.576Z,29.33
2018-04-13T00:28:49.060Z,30.00
2018-04-13T00:31:16.612Z,29.55
2018-04-13T00:33:44.069Z,30.57
2018-04-13T00:36:11.506Z,29.85
2018-04-13T00:38:38.948Z,29.12
2018-04-13T00:41:06.441Z,30.88
2018-04-13T00:43:33.913Z,30.50
2018-04-13T00:46:01.352Z,31.05
2018-04-13T00:48:28.781Z,31.43
2018-04-13T00:50:56.224Z,31.80
2018-04-13T00:53:29.455Z,30.30
2018-04-13T00:55:56.897Z,30.05
2018-04-13T00:58:24.344Z,31.80
2018-04-13T01:00:51.800Z,31.48
2018-04-13T01:03:19.240Z,30.40
2018-04-13T01:05:46.694Z,31.10
2018-04-13T01:08:14.137Z,30.90
2018-04-13T01:10:42.348Z,32.57
2018-04-13T01:13:09.792Z,31.17
2018-04-13T01:15:37.273Z,32.28
2018-04-13T01:18:04.722Z,32.45
2018-04-13T01:20:32.269Z,30.93
2018-04-13T01:22:59.748Z,32.80
2018-04-13T01:25:27.198Z,31.62
2018-04-13T01:27:54.636Z,31.15
2018-04-13T01:30:22.093Z,32.10
2018-04-13T01:32:49.550Z,32.83
2018-04-13T01:35:17.928Z,32.43
2018-04-13T01:37:45.404Z,33.45
2018-04-13T01:40:12.861Z,34.50
2018-04-13T01:42:40.328Z,33.40
2018-04-13T01:45:07.776Z,32.60
2018-04-13T01:47:35.229Z,34.20
2018-04-13T01:50:02.770Z,33.75
2018-04-13T01:52:30.196Z,33.92
2018-04-13T01:54:57.633Z,34.70
2018-04-13T01:57:25.266Z,34.78
2018-04-13T01:59:52.731Z,34.35
2018-04-13T02:02:20.286Z,35.40
2018-04-13T02:04:47.813Z,34.85
2018-04-13T02:07:15.268Z,37.50
2018-04-13T02:09:42.726Z,36.55
2018-04-13T02:12:10.187Z,37.25
2018-04-13T02:14:37.670Z,35.88
2018-04-13T02:17:05.117Z,36.45
2018-04-13T02:19:32.556Z,38.53
2018-04-13T02:22:00.032Z,38.55
2018-04-13T02:24:27.489Z,36.30
2018-04-13T02:26:54.942Z,36.70
2018-04-13T02:29:22.416Z,34.75
2018-04-13T02:31:50.350Z,36.00
2018-04-13T02:34:17.869Z,37.33
2018-04-13T02:36:45.304Z,36.50
2018-04-13T02:39:12.767Z,37.83
2018-04-13T02:41:40.204Z,37.42
2018-04-13T02:44:07.748Z,36.47
2018-04-13T02:46:35.315Z,37.50
2018-04-13T02:49:02.774Z,35.55
2018-04-13T02:51:30.438Z,36.17
2018-04-13T02:53:57.905Z,35.13
2018-04-13T02:56:25.455Z,37.22
2018-04-13T02:58:53.085Z,37.37
2018-04-13T03:01:20.509Z,36.60
2018-04-13T03:03:48.717Z,36.78
2018-04-13T03:06:16.156Z,38.00
2018-04-13T03:08:43.608Z,37.47
2018-04-13T03:11:11.044Z,37.13
2018-04-13T03:13:39.249Z,35.85
2018-04-13T03:16:06.694Z,37.75
2018-04-13T03:18:34.141Z,38.85
2018-04-13T03:21:02.361Z,38.03
2018-04-13T03:23:29.808Z,36.65
2018-04-13T03:25:57.237Z,41.08
2018-04-13T03:28:24.697Z,38.55
2018-04-13T03:30:52.137Z,39.90
2018-04-13T03:33:20.444Z,38.72
2018-04-13T03:35:47.861Z,38.72
2018-04-13T03:38:16.077Z,39.03
2018-04-13T03:40:43.568Z,39.08
2018-04-13T03:43:11.000Z,37.70
2018-04-13T03:45:38.438Z,40.90
2018-04-13T03:48:05.888Z,39.45
2018-04-13T03:50:33.340Z,39.88
2018-04-13T03:53:00.789Z,38.73
2018-04-13T03:55:28.224Z,41.95
2018-04-13T03:57:55.660Z,40.15
2018-04-13T04:00:23.095Z,40.88
2018-04-13T04:02:50.545Z,42.17
2018-04-13T04:05:17.980Z,42.80
2018-04-13T04:07:45.553Z,41.20
2018-04-13T04:10:12.984Z,41.70
2018-04-13T04:12:40.432Z,42.00
2018-04-13T04:15:08.676Z,40.95
2018-04-13T04:17:36.301Z,42.60
2018-04-13T04:20:15.868Z,41.08
2018-04-13T04:22:55.065Z,42.75
2018-04-13T04:25:34.525Z,41.80
2018-04-13T04:28:01.961Z,42.80
2018-04-13T04:30:29.390Z,40.83
2018-04-13T04:32:57.592Z,41.17
2018-04-13T04:35:25.017Z,40.97
2018-04-13T04:37:53.222Z,41.80
2018-04-13T04:40:20.668Z,41.30
2018-04-13T04:42:48.116Z,41.47
2018-04-13T04:45:15.544Z,43.43
2018-04-13T04:47:43.765Z,42.35
2018-04-13T04:50:11.209Z,42.08
2018-04-13T04:52:38.656Z,43.60
2018-04-13T04:55:06.104Z,43.50
2018-04-13T04:57:34.312Z,42.50
2018-04-13T05:00:01.769Z,42.05
2018-04-13T05:02:29.205Z,42.10
2018-04-13T05:04:56.661Z,43.03
2018-04-13T05:07:24.107Z,43.53
2018-04-13T05:09:52.313Z,43.20
2018-04-13T05:12:19.765Z,44.42
2018-04-13T05:14:47.211Z,42.55
2018-04-13T05:17:14.663Z,43.47
2018-04-13T05:19:42.105Z,43.95
2018-04-13T05:22:10.410Z,42.00
2018-04-13T05:24:37.864Z,42.95
2018-04-13T05:27:05.318Z,44.30
2018-04-13T05:29:32.758Z,44.23
2018-04-13T05:32:00.204Z,43.90
2018-04-13T05:34:28.432Z,44.95
2018-04-13T05:36:55.969Z,43.33
2018-04-13T05:39:23.454Z,43.72
2018-04-13T05:41:50.907Z,43.30
2018-04-13T05:44:18.439Z,45.42
2018-04-13T05:46:45.932Z,42.15
2018-04-13T05:49:13.562Z,42.97
2018-04-13T05:51:41.012Z,43.85
2018-04-13T05:54:08.449Z,42.75
2018-04-13T05:56:35.905Z,43.28
2018-04-13T05:59:03.420Z,43.23
2018-04-13T06:01:31.116Z,45.63
2018-04-13T06:03:59.320Z,44.17
2018-04-13T06:06:26.785Z,42.65
2018-04-13T06:08:54.274Z,44.03
2018-04-13T06:11:21.717Z,44.63
2018-04-13T06:13:49.273Z,44.28
2018-04-13T06:16:16.744Z,42.30
2018-04-13T06:18:44.289Z,41.37
2018-04-13T06:21:11.730Z,42.72
2018-04-13T06:23:39.201Z,43.17
2018-04-13T06:26:06.664Z,40.93
2018-04-13T06:28:34.105Z,42.30
2018-04-13T06:31:01.645Z,42.53
2018-04-13T06:33:29.086Z,42.60
2018-04-13T06:35:56.557Z,43.17
2018-04-13T06:38:24.015Z,43.92
2018-04-13T06:40:51.498Z,43.45
2018-04-13T06:43:18.984Z,43.92
2018-04-13T06:45:47.306Z,43.78
2018-04-13T06:48:14.762Z,41.97
2018-04-13T06:50:42.204Z,44.88
2018-04-13T06:53:09.651Z,43.10
2018-04-13T06:55:37.239Z,43.40
2018-04-13T06:58:04.730Z,43.25
2018-04-13T07:00:32.248Z,45.38
2018-04-13T07:02:59.732Z,43.85
2018-04-13T07:05:27.180Z,44.55
2018-04-13T07:07:54.634Z,41.40
2018-04-13T07:10:22.075Z,44.27
2018-04-13T07:12:49.549Z,44.70
2018-04-13T07:15:16.998Z,43.85
2018-04-13T07:17:44.545Z,45.15
2018-04-13T07:20:11.994Z,45.37
2018-04-13T07:22:39.430Z,44.15
2018-04-13T07:25:07.642Z,41.80
2018-04-13T07:27:35.191Z,42.57
2018-04-13T07:30:02.633Z,44.65
2018-04-13T07:32:30.833Z,43.30
2018-04-13T07:34:58.277Z,44.70
2018-04-13T07:37:25.730Z,47.65
2018-04-13T07:39:53.213Z,45.50
2018-04-13T07:42:20.746Z,45.08
2018-04-13T07:44:48.203Z,45.60
2018-04-13T07:47:15.762Z,46.08
2018-04-13T07:49:43.216Z,46.20
2018-04-13T07:52:10.638Z,45.63
2018-04-13T07:54:38.864Z,46.03
2018-04-13T07:57:06.333Z,44.17
2018-04-13T07:59:33.776Z,46.03
2018-04-13T08:02:01.220Z,45.75
2018-04-13T08:04:28.776Z,45.70
2018-04-13T08:06:56.238Z,45.10
2018-04-13T08:09:23.720Z,45.78
2018-04-13T08:11:51.273Z,46.42
2018-04-13T08:14:18.730Z,48.75
2018-04-13T08:16:46.176Z,45.58
2018-04-13T08:19:13.717Z,45.65
2018-04-13T08:21:41.171Z,46.08
2018-04-13T08:24:08.628Z,47.03
2018-04-13T08:26:36.191Z,45.60
2018-04-13T08:29:03.748Z,44.33
2018-04-13T08:31:31.192Z,44.83
2018-04-13T08:33:58.729Z,43.63
2018-04-13T08:36:26.964Z,44.00
2018-04-13T08:38:54.498Z,43.60
2018-04-13T08:41:21.924Z,44.25
2018-04-13T08:43:50.132Z,51.30
2018-04-13T08:46:17.682Z,47.20
2018-04-13T08:48:45.311Z,45.35
2018-04-13T08:51:12.835Z,43.95
2018-04-13T08:53:40.261Z,44.23
2018-04-13T08:56:07.814Z,46.40
2018-04-13T08:58:35.253Z,43.60
2018-04-13T09:01:02.788Z,42.17
2018-04-13T09:03:30.286Z,43.40
2018-04-13T09:05:57.716Z,43.13
2018-04-13T09:08:25.198Z,42.70
2018-04-13T09:10:52.648Z,42.03
2018-04-13T09:13:20.110Z,44.22
2018-04-13T09:15:47.594Z,44.80
2018-04-13T09:18:15.044Z,43.55
2018-04-13T09:20:42.623Z,43.37
2018-04-13T09:23:10.010Z,43.60
2018-04-13T09:25:38.317Z,43.33
2018-04-13T09:28:05.741Z,43.45
2018-04-13T09:30:33.945Z,43.53
2018-04-13T09:33:01.420Z,44.85
2018-04-13T09:35:28.992Z,44.27
2018-04-13T09:37:57.952Z,42.40
2018-04-13T09:40:25.393Z,43.87
2018-04-13T09:42:52.970Z,43.63
2018-04-13T09:45:20.406Z,42.97
2018-04-13T09:47:47.983Z,42.62
2018-04-13T09:50:15.417Z,41.80
2018-04-13T09:52:42.865Z,43.33
2018-04-13T09:55:11.068Z,41.85
2018-04-13T09:57:38.543Z,48.13
2018-04-13T10:00:05.985Z,43.20
2018-04-13T10:02:38.363Z,42.15
2018-04-13T10:05:11.564Z,43.30
2018-04-13T10:07:38.997Z,42.60
2018-04-13T10:10:06.442Z,43.93
2018-04-13T10:12:33.901Z,43.22
2018-04-13T10:15:01.357Z,42.85
2018-04-13T10:17:28.930Z,42.70
2018-04-13T10:19:56.396Z,44.75
2018-04-13T10:22:23.842Z,42.33
2018-04-13T10:24:52.100Z,43.08
2018-04-13T10:27:19.536Z,45.12
2018-04-13T10:29:47.740Z,44.05
2018-04-13T10:32:15.186Z,45.47
2018-04-13T10:34:42.753Z,46.83
2018-04-13T10:37:10.245Z,43.83
2018-04-13T10:39:37.688Z,44.80
2018-04-13T10:42:05.232Z,42.27
2018-04-13T10:44:32.861Z,43.50
2018-04-13T10:47:01.170Z,43.42
2018-04-13T10:49:28.842Z,45.90
2018-04-13T10:51:56.441Z,45.65
2018-04-13T10:54:24.766Z,45.35
2018-04-13T10:56:52.739Z,45.00
2018-04-13T10:59:20.245Z,47.85
2018-04-13T11:01:47.749Z,47.92
2018-04-13T11:04:15.343Z,50.38
2018-04-13T11:06:42.789Z,50.38
2018-04-13T11:09:10.324Z,49.15
2018-04-13T11:11:37.883Z,49.83
2018-04-13T11:14:05.341Z,52.15
2018-04-13T11:16:32.977Z,52.75
2018-04-13T11:19:00.416Z,51.50
2018-04-13T11:21:28.644Z,51.30
2018-04-13T11:23:56.086Z,53.40
2018-04-13T11:26:23.534Z,53.47
2018-04-13T11:28:51.103Z,56.95
2018-04-13T11:31:18.658Z,53.00
2018-04-13T11:33:46.140Z,56.72
2018-04-13T11:36:13.673Z,57.67
2018-04-13T11:38:41.174Z,58.07
2018-04-13T11:41:08.629Z,59.05
2018-04-13T11:43:36.151Z,59.17
2018-04-13T11:46:03.604Z,58.05
2018-04-13T11:48:31.099Z,60.12
2018-04-13T11:50:58.541Z,57.70
2018-04-13T11:53:25.990Z,57.00
2018-04-13T11:55:53.443Z,56.85
2018-04-13T11:58:20.898Z,56.30
2018-04-13T12:00:48.344Z,60.65
2018-04-13T12:03:15.820Z,59.10
2018-04-13T12:05:43.292Z,58.67
2018-04-13T12:08:10.727Z,56.60
2018-04-13T12:10:38.212Z,56.42
2018-04-13T12:13:05.652Z,55.00
2018-04-13T12:15:33.082Z,57.63
2018-04-13T12:18:00.536Z,57.70
2018-04-13T12:20:27.985Z,56.97
2018-04-13T12:22:55.429Z,56.60
2018-04-13T12:25:22.877Z,60.80
2018-04-13T12:27:51.113Z,57.70
2018-04-13T12:30:18.740Z,56.10
2018-04-13T12:32:47.118Z,58.22
2018-04-13T12:35:14.632Z,58.78
2018-04-13T12:37:42.881Z,57.83
2018-04-13T12:40:10.410Z,58.90
2018-04-13T12:42:37.849Z,57.03
2018-04-13T12:45:05.289Z,57.25
2018-04-13T12:47:33.497Z,58.03
2018-04-13T12:50:01.017Z,58.53
2018-04-13T12:52:29.233Z,57.13
2018-04-13T12:54:56.829Z,56.22
2018-04-13T12:57:24.243Z,56.72
2018-04-13T12:59:51.717Z,54.80
2018-04-13T13:02:19.184Z,55.03
2018-04-13T13:04:46.712Z,52.60
2018-04-13T13:07:14.274Z,52.20
2018-04-13T13:09:41.721Z,55.05
2018-04-13T13:12:09.206Z,52.43
2018-04-13T13:14:36.649Z,54.63
2018-04-13T13:17:04.311Z,51.33
2018-04-13T13:19:31.733Z,52.95
2018-04-13T13:21:59.189Z,50.58
2018-04-13T13:24:26.667Z,50.47
2018-04-13T13:26:54.231Z,49.10
2018-04-13T13:29:21.703Z,48.20
2018-04-13T13:31:49.243Z,47.80
2018-04-13T13:34:16.698Z,48.60
2018-04-13T13:36:44.258Z,47.13
2018-04-13T13:39:11.748Z,47.03
2018-04-13T13:41:39.206Z,44.58
2018-04-13T13:44:06.645Z,43.70
2018-04-13T13:46:34.085Z,43.25
2018-04-13T13:49:01.666Z,44.17
2018-04-13T13:51:29.202Z,41.50
2018-04-13T13:53:56.698Z,42.58
2018-04-13T13:56:24.136Z,41.50
2018-04-13T13:58:51.597Z,42.47
2018-04-13T14:01:19.036Z,42.03
2018-04-13T14:03:46.496Z,41.47
2018-04-13T14:06:14.141Z,41.47
2018-04-13T14:08:41.569Z,38.35
2018-04-13T14:11:09.874Z,37.50
2018-04-13T14:13:37.314Z,38.50
2018-04-13T14:16:04.739Z,36.30
2018-04-13T14:18:32.180Z,37.17
2018-04-13T14:20:59.700Z,33.97
2018-04-13T14:23:27.125Z,33.97
2018-04-13T14:25:55.337Z,33.03
2018-04-13T14:28:22.888Z,31.87
2018-04-13T14:30:50.342Z,31.55
2018-04-13T14:33:17.765Z,30.05
2018-04-13T14:35:46.430Z,30.27
2018-04-13T14:38:13.872Z,28.98
2018-04-13T14:40:41.330Z,28.73
2018-04-13T14:43:08.790Z,28.20
2018-04-13T14:45:36.338Z,28.15
2018-04-13T14:48:03.794Z,28.27
2018-04-13T14:50:31.240Z,27.63
2018-04-13T14:52:58.885Z,27.77
2018-04-13T14:55:26.313Z,28.75
2018-04-13T14:57:53.773Z,29.92
2018-04-13T15:00:21.253Z,30.30
2018-04-13T15:02:48.812Z,31.00
2018-04-13T15:05:16.241Z,29.27
2018-04-13T15:07:44.458Z,31.52
2018-04-13T15:10:11.900Z,31.65
2018-04-13T15:12:39.497Z,32.38
2018-04-13T15:15:07.057Z,32.93
2018-04-13T15:17:34.501Z,33.45
2018-04-13T15:20:02.229Z,32.90
2018-04-13T15:22:29.673Z,34.47
2018-04-13T15:24:57.145Z,35.20
2018-04-13T15:27:24.602Z,35.10
2018-04-13T15:29:52.134Z,35.00
2018-04-13T15:32:20.440Z,35.42
2018-04-13T15:34:47.892Z,36.47
2018-04-13T15:37:15.592Z,35.60
2018-04-13T15:39:43.827Z,36.28
2018-04-13T15:42:11.320Z,37.58
2018-04-13T15:44:38.779Z,36.40
2018-04-13T15:47:07.145Z,36.30
2018-04-13T15:49:34.596Z,35.53
2018-04-13T15:52:02.041Z,38.55
2018-04-13T15:54:29.510Z,38.95
2018-04-13T15:56:56.990Z,38.30
2018-04-13T15:59:24.608Z,39.63
2018-04-13T16:01:52.042Z,39.92
2018-04-13T16:04:19.537Z,41.30
2018-04-13T16:06:47.004Z,40.78
2018-04-13T16:09:14.483Z,39.97
2018-04-13T16:11:42.073Z,39.88
2018-04-13T16:14:09.537Z,39.83
2018-04-13T16:16:37.106Z,39.90
2018-04-13T16:19:04.563Z,41.37
2018-04-13T16:21:32.529Z,41.63
2018-04-13T16:24:00.018Z,40.17
2018-04-13T16:26:27.469Z,41.45
2018-04-13T16:28:55.003Z,41.80
2018-04-13T16:31:22.485Z,40.10
2018-04-13T16:33:49.949Z,42.00
2018-04-13T16:36:17.475Z,41.00
2018-04-13T16:38:44.904Z,39.58
2018-04-13T16:41:12.437Z,39.38
2018-04-13T16:43:39.890Z,39.63
2018-04-13T16:46:07.402Z,39.03
2018-04-13T16:48:34.961Z,39.40
2018-04-13T16:51:02.449Z,40.03
2018-04-13T16:53:29.911Z,40.42
2018-04-13T16:55:57.387Z,41.97
2018-04-13T16:58:24.891Z,42.20
2018-04-13T17:00:52.364Z,41.70
2018-04-13T17:03:19.815Z,42.45
2018-04-13T17:05:47.275Z,42.92
2018-04-13T17:08:15.635Z,44.23
2018-04-13T17:10:43.083Z,43.42
2018-04-13T17:13:10.569Z,45.45
2018-04-13T17:15:38.104Z,44.43
2018-04-13T17:18:05.521Z,45.30
2018-04-13T17:20:33.742Z,45.95
2018-04-13T17:23:01.187Z,46.53
2018-04-13T17:25:28.679Z,45.50
2018-04-13T17:27:56.205Z,44.42
2018-04-13T17:30:23.705Z,46.00
2018-04-13T17:32:51.146Z,45.42
2018-04-13T17:35:18.779Z,45.67
2018-04-13T17:37:46.408Z,47.05
2018-04-13T17:40:14.626Z,48.00
2018-04-13T17:42:42.071Z,45.97
2018-04-13T17:45:09.529Z,45.55
2018-04-13T17:47:36.989Z,45.58
2018-04-13T17:50:04.485Z,44.60
2018-04-13T17:52:31.935Z,44.38
2018-04-13T17:54:59.555Z,46.35
2018-04-13T17:57:27.012Z,44.63
2018-04-13T17:59:55.292Z,43.60
2018-04-13T18:02:22.731Z,45.47
2018-04-13T18:04:50.185Z,47.78
2018-04-13T18:07:17.633Z,50.00
2018-04-13T18:09:45.083Z,47.05
2018-04-13T18:12:13.305Z,48.83
2018-04-13T18:14:40.776Z,48.57
2018-04-13T18:17:08.226Z,47.47
2018-04-13T18:19:35.677Z,46.45
2018-04-13T18:22:03.319Z,48.72
2018-04-13T18:24:30.773Z,48.15
2018-04-13T18:26:58.214Z,49.17
2018-04-13T18:29:25.680Z,49.75
2018-04-13T18:31:53.109Z,47.67
2018-04-13T18:34:21.314Z,45.97
2018-04-13T18:36:48.765Z,47.00
2018-04-13T18:39:16.226Z,48.95
2018-04-13T18:41:43.685Z,47.88
2018-04-13T18:44:11.186Z,48.13
2018-04-13T18:46:38.698Z,46.05
2018-04-13T18:49:06.162Z,42.47
2018-04-13T18:51:33.628Z,44.25
2018-04-13T18:54:01.111Z,44.47
2018-04-13T18:56:29.361Z,44.85
2018-04-13T18:58:56.798Z,45.20
2018-04-13T19:01:24.249Z,45.03
2018-04-13T19:03:51.697Z,43.67
2018-04-13T19:06:19.193Z,43.58
2018-04-13T19:08:46.629Z,44.30
2018-04-13T19:11:14.186Z,42.85
2018-04-13T19:13:41.645Z,43.63
2018-04-13T19:16:09.089Z,44.83
2018-04-13T19:18:36.556Z,43.80
2018-04-13T19:21:04.001Z,42.28
2018-04-13T19:23:31.468Z,43.22
2018-04-13T19:25:58.986Z,41.80
2018-04-13T19:28:27.213Z,43.10
2018-04-13T19:30:54.648Z,44.13
2018-04-13T19:33:22.214Z,44.63
2018-04-13T19:35:50.630Z,45.22
2018-04-13T19:38:18.150Z,43.20
2018-04-13T19:40:45.593Z,44.58
2018-04-13T19:43:13.168Z,43.00
2018-04-13T19:45:40.592Z,45.67
2018-04-13T19:48:08.800Z,41.78
2018-04-13T19:50:36.261Z,43.17
2018-04-13T19:53:03.707Z,43.20
2018-04-13T19:55:31.185Z,42.03
2018-04-13T19:57:58.632Z,42.97
2018-04-13T20:00:26.061Z,44.88
2018-04-13T20:02:53.514Z,43.28
2018-04-13T20:05:20.987Z,43.17
2018-04-13T20:07:48.424Z,42.30
2018-04-13T20:10:15.921Z,43.28
2018-04-13T20:12:43.459Z,43.85
2018-04-13T20:15:16.840Z,44.17
2018-04-13T20:17:44.357Z,44.03
2018-04-13T20:20:11.790Z,43.30
2018-04-13T20:22:39.238Z,45.27
2018-04-13T20:25:06.681Z,44.17
2018-04-13T20:27:34.137Z,44.15
2018-04-13T20:30:01.696Z,43.47
2018-04-13T20:32:29.193Z,44.47
2018-04-13T20:34:56.641Z,44.67
2018-04-13T20:37:24.085Z,42.67
2018-04-13T20:39:51.624Z,42.95
2018-04-13T20:42:19.081Z,43.35
2018-04-13T20:44:46.536Z,43.85
2018-04-13T20:47:13.977Z,45.15
2018-04-13T20:49:41.420Z,45.05
2018-04-13T20:52:09.637Z,43.92
2018-04-13T20:54:37.227Z,44.10
2018-04-13T20:57:04.621Z,44.08
2018-04-13T20:59:32.092Z,45.95
2018-04-13T21:01:59.519Z,46.40
2018-04-13T21:04:27.717Z,45.78
2018-04-13T21:06:55.177Z,46.08
2018-04-13T21:09:22.666Z,45.30
2018-04-13T21:11:50.122Z,45.90
2018-04-13T21:14:17.553Z,46.40
2018-04-13T21:16:45.002Z,47.97
2018-04-13T21:19:12.483Z,47.08
2018-04-13T21:21:39.921Z,47.75
2018-04-13T21:24:07.361Z,48.45
2018-04-13T21:26:34.805Z,48.83
2018-04-13T21:29:02.287Z,46.90
2018-04-13T21:31:29.709Z,47.85
2018-04-13T21:33:57.917Z,47.20
2018-04-13T21:36:25.366Z,45.95
2018-04-13T21:38:52.799Z,48.40
2018-04-13T21:41:21.019Z,49.33
2018-04-13T21:43:48.493Z,48.22
2018-04-13T21:46:16.017Z,48.03
2018-04-13T21:48:43.453Z,47.90
2018-04-13T21:51:10.889Z,48.53
2018-04-13T21:53:39.153Z,48.17
2018-04-13T21:56:06.580Z,47.30
2018-04-13T21:58:34.038Z,47.67
2018-04-13T22:01:01.479Z,47.83
2018-04-13T22:03:28.905Z,48.30
2018-04-13T22:05:56.352Z,48.78
2018-04-13T22:08:24.571Z,49.50
2018-04-13T22:10:52.789Z,47.83
2018-04-13T22:13:27.733Z,47.95
2018-04-13T22:15:55.946Z,64.85
2018-04-13T22:18:23.380Z,48.08
2018-04-13T22:20:50.846Z,49.45
2018-04-13T22:23:18.302Z,50.12
2018-04-13T22:25:45.736Z,47.80
2018-04-13T22:28:13.216Z,48.80
2018-04-13T22:30:40.636Z,49.20
2018-04-13T22:33:08.866Z,51.10
2018-04-13T22:35:36.507Z,49.20
2018-04-13T22:38:03.949Z,51.83
2018-04-13T22:40:31.397Z,50.70
2018-04-13T22:42:58.843Z,52.60
2018-04-13T22:45:27.028Z,50.38
2018-04-13T22:47:54.485Z,52.62
2018-04-13T22:50:21.986Z,52.78
2018-04-13T22:52:49.441Z,54.15
2018-04-13T22:55:16.884Z,52.10
2018-04-13T22:57:44.329Z,51.63
2018-04-13T23:00:11.764Z,53.63
2018-04-13T23:02:39.241Z,53.97
2018-04-13T23:05:06.677Z,54.33
2018-04-13T23:07:34.119Z,54.75
2018-04-13T23:10:02.333Z,52.00
2018-04-13T23:12:29.771Z,52.88
2018-04-13T23:14:57.227Z,53.30
2018-04-13T23:17:24.686Z,50.95
2018-04-13T23:19:52.120Z,53.90
2018-04-13T23:22:32.193Z,51.75
2018-04-13T23:24:59.632Z,52.28
2018-04-13T23:27:28.064Z,54.03
2018-04-13T23:29:55.497Z,53.27
2018-04-13T23:32:23.056Z,54.22
2018-04-13T23:34:50.615Z,56.35
2018-04-13T23:37:18.174Z,55.72
2018-04-13T23:39:45.649Z,53.22
2018-04-13T23:42:13.088Z,54.13
2018-04-13T23:44:40.576Z,52.33
2018-04-13T23:47:08.013Z,54.03
2018-04-13T23:49:36.108Z,53.03
2018-04-13T23:52:03.732Z,54.10
2018-04-13T23:54:31.184Z,52.35
2018-04-13T23:56:58.624Z,52.45
2018-04-13T23:59:26.053Z,52.57
